sensor_id;sensor_type;location;lat;lon;timestamp;P1;durP1;ratioP1;P2;durP2;ratioP2
3022;SDS011;1521;53.584;9.938;2023-08-17T00:00:55;5.70;;;2.80;;
3022;SDS011;1521;53.584;9.938;2023-08-17T00:03:20;8.60;;;2.90;;
3022;SDS011;1521;53.584;9.938;2023-08-17T00:05:46;5.47;;;2.70;;
3022;SDS011;1521;53.584;9.938;2023-08-17T00:08:11;6.63;;;2.57;;
3022;SDS011;1521;53.584;9.938;2023-08-17T00:10:37;4.53;;;2.33;;
3022;SDS011;1521;53.584;9.938;2023-08-17T00:13:03;5.97;;;2.80;;
3022;SDS011;1521;53.584;9.938;2023-08-17T00:15:29;11.37;;;2.60;;
3022;SDS011;1521;53.584;9.938;2023-08-17T00:17:55;3.33;;;2.33;;
3022;SDS011;1521;53.584;9.938;2023-08-17T00:20:20;5.60;;;2.90;;
3022;SDS011;1521;53.584;9.938;2023-08-17T00:22:46;11.00;;;3.17;;
3022;SDS011;1521;53.584;9.938;2023-08-17T00:25:12;4.63;;;2.50;;
3022;SDS011;1521;53.584;9.938;2023-08-17T00:27:38;4.43;;;2.50;;
3022;SDS011;1521;53.584;9.938;2023-08-17T00:30:03;9.60;;;3.30;;
3022;SDS011;1521;53.584;9.938;2023-08-17T00:32:29;7.90;;;2.70;;
3022;SDS011;1521;53.584;9.938;2023-08-17T00:34:55;5.67;;;2.67;;
3022;SDS011;1521;53.584;9.938;2023-08-17T00:37:21;6.20;;;2.33;;
3022;SDS011;1521;53.584;9.938;2023-08-17T00:39:46;8.40;;;2.80;;
3022;SDS011;1521;53.584;9.938;2023-08-17T00:42:12;5.60;;;2.40;;
3022;SDS011;1521;53.584;9.938;2023-08-17T00:44:37;6.43;;;2.70;;
3022;SDS011;1521;53.584;9.938;2023-08-17T00:47:03;8.90;;;2.90;;
3022;SDS011;1521;53.584;9.938;2023-08-17T00:49:29;8.17;;;2.90;;
3022;SDS011;1521;53.584;9.938;2023-08-17T00:51:56;7.43;;;3.27;;
3022;SDS011;1521;53.584;9.938;2023-08-17T00:54:23;6.50;;;3.50;;
3022;SDS011;1521;53.584;9.938;2023-08-17T00:56:50;3.70;;;2.70;;
3022;SDS011;1521;53.584;9.938;2023-08-17T00:59:17;5.30;;;2.40;;
3022;SDS011;1521;53.584;9.938;2023-08-17T01:01:43;5.30;;;2.77;;
3022;SDS011;1521;53.584;9.938;2023-08-17T01:04:09;5.40;;;3.10;;
3022;SDS011;1521;53.584;9.938;2023-08-17T01:06:34;9.23;;;2.80;;
3022;SDS011;1521;53.584;9.938;2023-08-17T01:09:00;5.50;;;2.30;;
3022;SDS011;1521;53.584;9.938;2023-08-17T01:11:32;5.50;;;2.73;;
3022;SDS011;1521;53.584;9.938;2023-08-17T01:14:16;7.80;;;2.70;;
3022;SDS011;1521;53.584;9.938;2023-08-17T01:17:03;3.83;;;2.70;;
3022;SDS011;1521;53.584;9.938;2023-08-17T01:19:40;7.00;;;3.10;;
3022;SDS011;1521;53.584;9.938;2023-08-17T01:22:08;11.17;;;2.50;;
3022;SDS011;1521;53.584;9.938;2023-08-17T01:24:35;5.40;;;2.50;;
3022;SDS011;1521;53.584;9.938;2023-08-17T01:27:01;5.20;;;2.67;;
3022;SDS011;1521;53.584;9.938;2023-08-17T01:29:27;5.57;;;2.57;;
3022;SDS011;1521;53.584;9.938;2023-08-17T01:34:33;11.33;;;3.53;;
3022;SDS011;1521;53.584;9.938;2023-08-17T01:37:04;11.07;;;2.70;;
3022;SDS011;1521;53.584;9.938;2023-08-17T01:39:37;6.67;;;2.70;;
3022;SDS011;1521;53.584;9.938;2023-08-17T01:42:05;5.50;;;2.60;;
3022;SDS011;1521;53.584;9.938;2023-08-17T01:44:32;6.63;;;3.00;;
3022;SDS011;1521;53.584;9.938;2023-08-17T01:46:58;7.33;;;2.60;;
3022;SDS011;1521;53.584;9.938;2023-08-17T01:49:24;6.00;;;2.77;;
3022;SDS011;1521;53.584;9.938;2023-08-17T01:51:49;6.83;;;2.87;;
3022;SDS011;1521;53.584;9.938;2023-08-17T01:54:15;7.00;;;3.20;;
3022;SDS011;1521;53.584;9.938;2023-08-17T01:56:40;10.80;;;2.50;;
3022;SDS011;1521;53.584;9.938;2023-08-17T01:59:06;4.30;;;2.63;;
3022;SDS011;1521;53.584;9.938;2023-08-17T02:01:31;5.73;;;2.70;;
3022;SDS011;1521;53.584;9.938;2023-08-17T02:03:57;6.17;;;2.90;;
3022;SDS011;1521;53.584;9.938;2023-08-17T02:06:24;5.30;;;2.60;;
3022;SDS011;1521;53.584;9.938;2023-08-17T02:08:50;3.87;;;2.50;;
3022;SDS011;1521;53.584;9.938;2023-08-17T02:11:16;4.10;;;2.50;;
3022;SDS011;1521;53.584;9.938;2023-08-17T02:13:42;7.03;;;3.00;;
3022;SDS011;1521;53.584;9.938;2023-08-17T02:16:07;6.37;;;2.80;;
3022;SDS011;1521;53.584;9.938;2023-08-17T02:18:33;6.93;;;3.40;;
3022;SDS011;1521;53.584;9.938;2023-08-17T02:20:59;6.33;;;2.83;;
3022;SDS011;1521;53.584;9.938;2023-08-17T02:23:25;7.57;;;3.00;;
3022;SDS011;1521;53.584;9.938;2023-08-17T02:25:51;6.60;;;2.80;;
3022;SDS011;1521;53.584;9.938;2023-08-17T02:28:16;8.73;;;3.40;;
3022;SDS011;1521;53.584;9.938;2023-08-17T02:30:42;5.90;;;3.10;;
3022;SDS011;1521;53.584;9.938;2023-08-17T02:33:08;3.90;;;2.40;;
3022;SDS011;1521;53.584;9.938;2023-08-17T02:35:34;10.43;;;2.83;;
3022;SDS011;1521;53.584;9.938;2023-08-17T02:37:59;4.70;;;2.57;;
3022;SDS011;1521;53.584;9.938;2023-08-17T02:40:25;7.43;;;2.83;;
3022;SDS011;1521;53.584;9.938;2023-08-17T02:42:51;5.17;;;2.43;;
3022;SDS011;1521;53.584;9.938;2023-08-17T02:45:16;5.50;;;2.70;;
3022;SDS011;1521;53.584;9.938;2023-08-17T02:47:42;2.60;;;2.40;;
3022;SDS011;1521;53.584;9.938;2023-08-17T02:50:07;4.43;;;2.50;;
3022;SDS011;1521;53.584;9.938;2023-08-17T02:52:33;6.30;;;2.33;;
3022;SDS011;1521;53.584;9.938;2023-08-17T02:54:59;5.30;;;2.70;;
3022;SDS011;1521;53.584;9.938;2023-08-17T02:57:25;2.83;;;2.33;;
3022;SDS011;1521;53.584;9.938;2023-08-17T02:59:50;5.43;;;3.10;;
3022;SDS011;1521;53.584;9.938;2023-08-17T03:02:16;5.23;;;2.70;;
3022;SDS011;1521;53.584;9.938;2023-08-17T03:04:41;9.83;;;2.20;;
3022;SDS011;1521;53.584;9.938;2023-08-17T03:07:07;6.70;;;2.60;;
3022;SDS011;1521;53.584;9.938;2023-08-17T03:09:32;5.43;;;2.93;;
3022;SDS011;1521;53.584;9.938;2023-08-17T03:11:58;4.83;;;2.43;;
3022;SDS011;1521;53.584;9.938;2023-08-17T03:14:24;4.70;;;2.40;;
3022;SDS011;1521;53.584;9.938;2023-08-17T03:16:49;4.63;;;2.63;;
3022;SDS011;1521;53.584;9.938;2023-08-17T03:19:15;4.60;;;2.43;;
3022;SDS011;1521;53.584;9.938;2023-08-17T03:21:40;5.13;;;2.57;;
3022;SDS011;1521;53.584;9.938;2023-08-17T03:24:06;4.00;;;2.57;;
3022;SDS011;1521;53.584;9.938;2023-08-17T03:26:32;7.13;;;2.77;;
3022;SDS011;1521;53.584;9.938;2023-08-17T03:28:58;4.60;;;2.40;;
3022;SDS011;1521;53.584;9.938;2023-08-17T03:31:23;6.03;;;2.50;;
3022;SDS011;1521;53.584;9.938;2023-08-17T03:33:49;4.13;;;2.73;;
3022;SDS011;1521;53.584;9.938;2023-08-17T03:36:14;7.10;;;2.60;;
3022;SDS011;1521;53.584;9.938;2023-08-17T03:38:40;7.30;;;2.60;;
3022;SDS011;1521;53.584;9.938;2023-08-17T03:41:06;5.27;;;2.47;;
3022;SDS011;1521;53.584;9.938;2023-08-17T03:43:32;3.30;;;2.10;;
3022;SDS011;1521;53.584;9.938;2023-08-17T03:45:58;6.40;;;2.80;;
3022;SDS011;1521;53.584;9.938;2023-08-17T03:48:23;2.17;;;1.97;;
3022;SDS011;1521;53.584;9.938;2023-08-17T03:50:53;10.73;;;2.63;;
3022;SDS011;1521;53.584;9.938;2023-08-17T03:53:19;7.17;;;2.40;;
3022;SDS011;1521;53.584;9.938;2023-08-17T03:55:48;2.67;;;2.47;;
3022;SDS011;1521;53.584;9.938;2023-08-17T03:58:15;2.60;;;2.17;;
3022;SDS011;1521;53.584;9.938;2023-08-17T04:00:41;3.67;;;2.50;;
3022;SDS011;1521;53.584;9.938;2023-08-17T04:03:07;4.93;;;2.30;;
3022;SDS011;1521;53.584;9.938;2023-08-17T04:05:33;4.10;;;2.83;;
3022;SDS011;1521;53.584;9.938;2023-08-17T04:07:59;6.67;;;2.70;;
3022;SDS011;1521;53.584;9.938;2023-08-17T04:10:27;5.10;;;2.60;;
3022;SDS011;1521;53.584;9.938;2023-08-17T04:12:53;4.50;;;2.53;;
3022;SDS011;1521;53.584;9.938;2023-08-17T04:15:19;7.93;;;2.50;;
3022;SDS011;1521;53.584;9.938;2023-08-17T04:17:44;6.03;;;2.83;;
3022;SDS011;1521;53.584;9.938;2023-08-17T04:20:10;3.30;;;2.33;;
3022;SDS011;1521;53.584;9.938;2023-08-17T04:22:36;7.33;;;2.80;;
3022;SDS011;1521;53.584;9.938;2023-08-17T04:25:02;3.03;;;2.07;;
3022;SDS011;1521;53.584;9.938;2023-08-17T04:27:27;5.60;;;2.80;;
3022;SDS011;1521;53.584;9.938;2023-08-17T04:29:53;2.90;;;2.00;;
3022;SDS011;1521;53.584;9.938;2023-08-17T04:32:18;5.80;;;2.30;;
3022;SDS011;1521;53.584;9.938;2023-08-17T04:34:45;8.00;;;3.17;;
3022;SDS011;1521;53.584;9.938;2023-08-17T04:37:11;11.03;;;2.50;;
3022;SDS011;1521;53.584;9.938;2023-08-17T04:39:36;6.63;;;2.87;;
3022;SDS011;1521;53.584;9.938;2023-08-17T04:42:03;4.97;;;3.17;;
3022;SDS011;1521;53.584;9.938;2023-08-17T04:44:29;5.63;;;3.00;;
3022;SDS011;1521;53.584;9.938;2023-08-17T04:46:55;9.10;;;2.83;;
3022;SDS011;1521;53.584;9.938;2023-08-17T04:49:20;7.83;;;2.73;;
3022;SDS011;1521;53.584;9.938;2023-08-17T04:51:46;9.57;;;2.70;;
3022;SDS011;1521;53.584;9.938;2023-08-17T04:54:12;6.77;;;2.80;;
3022;SDS011;1521;53.584;9.938;2023-08-17T04:56:37;8.60;;;2.70;;
3022;SDS011;1521;53.584;9.938;2023-08-17T04:59:03;7.27;;;2.80;;
3022;SDS011;1521;53.584;9.938;2023-08-17T05:01:28;8.87;;;2.93;;
3022;SDS011;1521;53.584;9.938;2023-08-17T05:03:54;7.70;;;2.80;;
3022;SDS011;1521;53.584;9.938;2023-08-17T05:06:19;7.90;;;3.10;;
3022;SDS011;1521;53.584;9.938;2023-08-17T05:08:45;5.63;;;3.30;;
3022;SDS011;1521;53.584;9.938;2023-08-17T05:11:11;3.30;;;2.77;;
3022;SDS011;1521;53.584;9.938;2023-08-17T05:13:37;3.17;;;2.87;;
3022;SDS011;1521;53.584;9.938;2023-08-17T05:16:03;5.40;;;3.13;;
3022;SDS011;1521;53.584;9.938;2023-08-17T05:18:28;7.50;;;3.20;;
3022;SDS011;1521;53.584;9.938;2023-08-17T05:20:54;10.13;;;3.70;;
3022;SDS011;1521;53.584;9.938;2023-08-17T05:23:21;4.93;;;3.00;;
3022;SDS011;1521;53.584;9.938;2023-08-17T05:25:46;6.33;;;3.60;;
3022;SDS011;1521;53.584;9.938;2023-08-17T05:28:12;8.20;;;3.80;;
3022;SDS011;1521;53.584;9.938;2023-08-17T05:30:38;9.07;;;4.00;;
3022;SDS011;1521;53.584;9.938;2023-08-17T05:33:04;7.93;;;3.93;;
3022;SDS011;1521;53.584;9.938;2023-08-17T05:35:29;10.30;;;3.53;;
3022;SDS011;1521;53.584;9.938;2023-08-17T05:37:55;9.93;;;3.47;;
3022;SDS011;1521;53.584;9.938;2023-08-17T05:40:21;5.90;;;4.00;;
3022;SDS011;1521;53.584;9.938;2023-08-17T05:42:46;8.13;;;3.50;;
3022;SDS011;1521;53.584;9.938;2023-08-17T05:45:12;7.13;;;3.93;;
3022;SDS011;1521;53.584;9.938;2023-08-17T05:47:37;5.90;;;4.60;;
3022;SDS011;1521;53.584;9.938;2023-08-17T05:50:03;10.70;;;4.27;;
3022;SDS011;1521;53.584;9.938;2023-08-17T05:52:29;8.73;;;4.63;;
3022;SDS011;1521;53.584;9.938;2023-08-17T05:54:54;7.50;;;4.13;;
3022;SDS011;1521;53.584;9.938;2023-08-17T05:57:20;8.10;;;4.50;;
3022;SDS011;1521;53.584;9.938;2023-08-17T05:59:46;6.07;;;3.90;;
3022;SDS011;1521;53.584;9.938;2023-08-17T06:02:11;8.93;;;4.70;;
3022;SDS011;1521;53.584;9.938;2023-08-17T06:04:37;8.03;;;4.63;;
3022;SDS011;1521;53.584;9.938;2023-08-17T06:07:02;8.13;;;4.47;;
3022;SDS011;1521;53.584;9.938;2023-08-17T06:09:28;7.73;;;5.03;;
3022;SDS011;1521;53.584;9.938;2023-08-17T06:11:54;13.73;;;4.87;;
3022;SDS011;1521;53.584;9.938;2023-08-17T06:14:19;7.10;;;4.57;;
3022;SDS011;1521;53.584;9.938;2023-08-17T06:16:45;7.17;;;4.37;;
3022;SDS011;1521;53.584;9.938;2023-08-17T06:19:11;6.60;;;4.70;;
3022;SDS011;1521;53.584;9.938;2023-08-17T06:21:36;5.57;;;4.40;;
3022;SDS011;1521;53.584;9.938;2023-08-17T06:24:02;11.33;;;5.10;;
3022;SDS011;1521;53.584;9.938;2023-08-17T06:26:28;8.70;;;4.50;;
3022;SDS011;1521;53.584;9.938;2023-08-17T06:28:53;11.40;;;5.60;;
3022;SDS011;1521;53.584;9.938;2023-08-17T06:31:19;11.90;;;5.67;;
3022;SDS011;1521;53.584;9.938;2023-08-17T06:33:45;13.13;;;5.00;;
3022;SDS011;1521;53.584;9.938;2023-08-17T06:36:10;10.80;;;5.77;;
3022;SDS011;1521;53.584;9.938;2023-08-17T06:38:38;6.87;;;4.47;;
3022;SDS011;1521;53.584;9.938;2023-08-17T06:41:03;7.83;;;4.70;;
3022;SDS011;1521;53.584;9.938;2023-08-17T06:43:29;14.50;;;5.53;;
3022;SDS011;1521;53.584;9.938;2023-08-17T06:45:55;8.47;;;5.13;;
3022;SDS011;1521;53.584;9.938;2023-08-17T06:48:21;12.70;;;5.40;;
3022;SDS011;1521;53.584;9.938;2023-08-17T06:50:47;11.83;;;6.00;;
3022;SDS011;1521;53.584;9.938;2023-08-17T06:53:12;7.97;;;5.13;;
3022;SDS011;1521;53.584;9.938;2023-08-17T06:55:38;9.63;;;5.40;;
3022;SDS011;1521;53.584;9.938;2023-08-17T06:58:03;8.70;;;5.30;;
3022;SDS011;1521;53.584;9.938;2023-08-17T07:00:29;9.60;;;5.70;;
3022;SDS011;1521;53.584;9.938;2023-08-17T07:02:54;9.13;;;5.20;;
3022;SDS011;1521;53.584;9.938;2023-08-17T07:05:20;15.70;;;6.40;;
3022;SDS011;1521;53.584;9.938;2023-08-17T07:07:46;10.93;;;4.93;;
3022;SDS011;1521;53.584;9.938;2023-08-17T07:10:11;9.97;;;5.10;;
3022;SDS011;1521;53.584;9.938;2023-08-17T07:12:37;15.10;;;5.60;;
3022;SDS011;1521;53.584;9.938;2023-08-17T07:15:04;13.33;;;6.00;;
3022;SDS011;1521;53.584;9.938;2023-08-17T07:17:30;8.10;;;4.73;;
3022;SDS011;1521;53.584;9.938;2023-08-17T07:19:55;7.93;;;4.70;;
3022;SDS011;1521;53.584;9.938;2023-08-17T07:22:21;8.47;;;4.90;;
3022;SDS011;1521;53.584;9.938;2023-08-17T07:24:47;10.73;;;4.60;;
3022;SDS011;1521;53.584;9.938;2023-08-17T07:27:12;10.60;;;4.37;;
3022;SDS011;1521;53.584;9.938;2023-08-17T07:29:38;5.23;;;4.10;;
3022;SDS011;1521;53.584;9.938;2023-08-17T07:32:04;6.27;;;4.17;;
3022;SDS011;1521;53.584;9.938;2023-08-17T07:34:29;6.07;;;4.33;;
3022;SDS011;1521;53.584;9.938;2023-08-17T07:36:56;8.47;;;4.00;;
3022;SDS011;1521;53.584;9.938;2023-08-17T07:39:22;9.97;;;4.30;;
3022;SDS011;1521;53.584;9.938;2023-08-17T07:41:48;6.17;;;4.27;;
3022;SDS011;1521;53.584;9.938;2023-08-17T07:44:14;8.20;;;4.33;;
3022;SDS011;1521;53.584;9.938;2023-08-17T07:46:39;5.93;;;4.73;;
3022;SDS011;1521;53.584;9.938;2023-08-17T07:49:05;10.80;;;4.30;;
3022;SDS011;1521;53.584;9.938;2023-08-17T07:51:31;7.13;;;4.40;;
3022;SDS011;1521;53.584;9.938;2023-08-17T07:53:59;10.60;;;4.43;;
3022;SDS011;1521;53.584;9.938;2023-08-17T07:56:25;7.30;;;4.27;;
3022;SDS011;1521;53.584;9.938;2023-08-17T07:58:50;6.97;;;3.67;;
3022;SDS011;1521;53.584;9.938;2023-08-17T08:01:18;8.93;;;4.60;;
3022;SDS011;1521;53.584;9.938;2023-08-17T08:03:43;8.33;;;4.50;;
3022;SDS011;1521;53.584;9.938;2023-08-17T08:06:09;6.83;;;4.40;;
3022;SDS011;1521;53.584;9.938;2023-08-17T08:08:34;7.13;;;4.47;;
3022;SDS011;1521;53.584;9.938;2023-08-17T08:11:00;6.57;;;4.80;;
3022;SDS011;1521;53.584;9.938;2023-08-17T08:13:26;14.07;;;4.60;;
3022;SDS011;1521;53.584;9.938;2023-08-17T08:15:51;5.17;;;4.43;;
3022;SDS011;1521;53.584;9.938;2023-08-17T08:18:17;6.07;;;4.53;;
3022;SDS011;1521;53.584;9.938;2023-08-17T08:20:42;7.10;;;4.67;;
3022;SDS011;1521;53.584;9.938;2023-08-17T08:23:08;9.40;;;4.73;;
3022;SDS011;1521;53.584;9.938;2023-08-17T08:25:34;10.57;;;5.73;;
3022;SDS011;1521;53.584;9.938;2023-08-17T08:27:59;7.60;;;5.10;;
3022;SDS011;1521;53.584;9.938;2023-08-17T08:30:25;11.90;;;5.00;;
3022;SDS011;1521;53.584;9.938;2023-08-17T08:32:51;9.10;;;5.03;;
3022;SDS011;1521;53.584;9.938;2023-08-17T08:35:16;10.23;;;5.07;;
3022;SDS011;1521;53.584;9.938;2023-08-17T08:37:42;9.10;;;5.20;;
3022;SDS011;1521;53.584;9.938;2023-08-17T08:40:10;5.37;;;4.60;;
3022;SDS011;1521;53.584;9.938;2023-08-17T08:42:38;8.70;;;4.83;;
3022;SDS011;1521;53.584;9.938;2023-08-17T08:45:03;7.13;;;4.10;;
3022;SDS011;1521;53.584;9.938;2023-08-17T08:47:30;14.60;;;5.13;;
3022;SDS011;1521;53.584;9.938;2023-08-17T08:49:59;6.00;;;4.40;;
3022;SDS011;1521;53.584;9.938;2023-08-17T08:52:35;5.80;;;4.63;;
3022;SDS011;1521;53.584;9.938;2023-08-17T08:55:11;5.87;;;4.17;;
3022;SDS011;1521;53.584;9.938;2023-08-17T08:57:40;6.90;;;3.90;;
3022;SDS011;1521;53.584;9.938;2023-08-17T09:00:06;4.70;;;3.40;;
3022;SDS011;1521;53.584;9.938;2023-08-17T09:02:33;7.10;;;4.10;;
3022;SDS011;1521;53.584;9.938;2023-08-17T09:04:59;5.27;;;3.67;;
3022;SDS011;1521;53.584;9.938;2023-08-17T09:07:26;5.30;;;3.90;;
3022;SDS011;1521;53.584;9.938;2023-08-17T09:09:54;5.23;;;4.23;;
3022;SDS011;1521;53.584;9.938;2023-08-17T09:12:21;7.03;;;3.70;;
3022;SDS011;1521;53.584;9.938;2023-08-17T09:14:47;8.03;;;3.93;;
3022;SDS011;1521;53.584;9.938;2023-08-17T09:17:13;7.03;;;4.47;;
3022;SDS011;1521;53.584;9.938;2023-08-17T09:19:38;8.23;;;4.00;;
3022;SDS011;1521;53.584;9.938;2023-08-17T09:22:04;10.33;;;4.33;;
3022;SDS011;1521;53.584;9.938;2023-08-17T09:24:36;3.57;;;3.27;;
3022;SDS011;1521;53.584;9.938;2023-08-17T09:27:02;7.53;;;3.30;;
3022;SDS011;1521;53.584;9.938;2023-08-17T09:29:28;5.50;;;3.57;;
3022;SDS011;1521;53.584;9.938;2023-08-17T09:31:58;4.43;;;4.00;;
3022;SDS011;1521;53.584;9.938;2023-08-17T09:34:32;8.80;;;3.70;;
3022;SDS011;1521;53.584;9.938;2023-08-17T09:37:04;6.10;;;3.93;;
3022;SDS011;1521;53.584;9.938;2023-08-17T09:39:30;4.90;;;3.40;;
3022;SDS011;1521;53.584;9.938;2023-08-17T09:41:56;3.73;;;3.10;;
3022;SDS011;1521;53.584;9.938;2023-08-17T09:44:22;3.67;;;3.37;;
3022;SDS011;1521;53.584;9.938;2023-08-17T09:46:48;9.33;;;3.70;;
3022;SDS011;1521;53.584;9.938;2023-08-17T09:49:13;5.97;;;3.70;;
3022;SDS011;1521;53.584;9.938;2023-08-17T09:51:42;4.53;;;3.53;;
3022;SDS011;1521;53.584;9.938;2023-08-17T09:54:16;5.37;;;4.20;;
3022;SDS011;1521;53.584;9.938;2023-08-17T09:56:48;5.57;;;3.20;;
3022;SDS011;1521;53.584;9.938;2023-08-17T09:59:15;5.77;;;3.47;;
3022;SDS011;1521;53.584;9.938;2023-08-17T10:01:41;4.30;;;3.30;;
3022;SDS011;1521;53.584;9.938;2023-08-17T10:04:08;4.80;;;3.10;;
3022;SDS011;1521;53.584;9.938;2023-08-17T10:06:35;4.90;;;3.00;;
3022;SDS011;1521;53.584;9.938;2023-08-17T10:09:04;4.13;;;2.53;;
3022;SDS011;1521;53.584;9.938;2023-08-17T10:11:31;2.67;;;2.27;;
3022;SDS011;1521;53.584;9.938;2023-08-17T10:14:04;2.23;;;2.07;;
3022;SDS011;1521;53.584;9.938;2023-08-17T10:21:55;4.20;;;2.70;;
3022;SDS011;1521;53.584;9.938;2023-08-17T10:24:25;7.13;;;3.10;;
3022;SDS011;1521;53.584;9.938;2023-08-17T10:26:51;6.00;;;2.80;;
3022;SDS011;1521;53.584;9.938;2023-08-17T10:29:17;3.73;;;2.90;;
3022;SDS011;1521;53.584;9.938;2023-08-17T10:31:45;3.27;;;2.97;;
3022;SDS011;1521;53.584;9.938;2023-08-17T10:34:11;3.27;;;2.97;;
3022;SDS011;1521;53.584;9.938;2023-08-17T10:36:38;5.03;;;2.57;;
3022;SDS011;1521;53.584;9.938;2023-08-17T10:41:52;2.20;;;2.10;;
3022;SDS011;1521;53.584;9.938;2023-08-17T10:47:18;3.47;;;2.30;;
3022;SDS011;1521;53.584;9.938;2023-08-17T10:49:45;2.53;;;2.30;;
3022;SDS011;1521;53.584;9.938;2023-08-17T10:52:12;5.30;;;2.47;;
3022;SDS011;1521;53.584;9.938;2023-08-17T10:54:39;3.13;;;2.50;;
3022;SDS011;1521;53.584;9.938;2023-08-17T11:00:06;4.47;;;2.10;;
3022;SDS011;1521;53.584;9.938;2023-08-17T11:08:04;2.57;;;2.37;;
3022;SDS011;1521;53.584;9.938;2023-08-17T11:10:30;2.90;;;2.50;;
3022;SDS011;1521;53.584;9.938;2023-08-17T11:12:57;4.63;;;2.73;;
3022;SDS011;1521;53.584;9.938;2023-08-17T11:15:30;2.70;;;2.50;;
3022;SDS011;1521;53.584;9.938;2023-08-17T11:18:03;3.93;;;2.47;;
3022;SDS011;1521;53.584;9.938;2023-08-17T11:20:30;3.83;;;2.70;;
3022;SDS011;1521;53.584;9.938;2023-08-17T11:22:57;3.20;;;2.90;;
3022;SDS011;1521;53.584;9.938;2023-08-17T11:25:23;6.73;;;2.70;;
3022;SDS011;1521;53.584;9.938;2023-08-17T11:27:50;3.60;;;2.87;;
3022;SDS011;1521;53.584;9.938;2023-08-17T11:30:16;2.87;;;2.40;;
3022;SDS011;1521;53.584;9.938;2023-08-17T11:32:42;3.63;;;2.83;;
3022;SDS011;1521;53.584;9.938;2023-08-17T11:35:07;3.10;;;2.80;;
3022;SDS011;1521;53.584;9.938;2023-08-17T11:37:33;4.80;;;2.83;;
3022;SDS011;1521;53.584;9.938;2023-08-17T11:39:59;4.07;;;3.43;;
3022;SDS011;1521;53.584;9.938;2023-08-17T11:42:25;4.40;;;3.30;;
3022;SDS011;1521;53.584;9.938;2023-08-17T11:44:50;4.27;;;3.37;;
3022;SDS011;1521;53.584;9.938;2023-08-17T11:47:16;4.20;;;3.73;;
3022;SDS011;1521;53.584;9.938;2023-08-17T11:49:41;4.57;;;3.70;;
3022;SDS011;1521;53.584;9.938;2023-08-17T11:52:09;3.87;;;3.40;;
3022;SDS011;1521;53.584;9.938;2023-08-17T11:54:39;4.30;;;3.30;;
3022;SDS011;1521;53.584;9.938;2023-08-17T11:57:05;4.43;;;3.43;;
3022;SDS011;1521;53.584;9.938;2023-08-17T11:59:31;4.40;;;3.60;;
3022;SDS011;1521;53.584;9.938;2023-08-17T12:01:58;5.00;;;3.80;;
3022;SDS011;1521;53.584;9.938;2023-08-17T12:04:25;5.97;;;3.80;;
3022;SDS011;1521;53.584;9.938;2023-08-17T12:06:51;5.03;;;4.10;;
3022;SDS011;1521;53.584;9.938;2023-08-17T12:09:17;4.60;;;4.03;;
3022;SDS011;1521;53.584;9.938;2023-08-17T12:11:44;4.90;;;4.13;;
3022;SDS011;1521;53.584;9.938;2023-08-17T12:14:11;6.13;;;4.40;;
3022;SDS011;1521;53.584;9.938;2023-08-17T12:16:47;9.13;;;4.67;;
3022;SDS011;1521;53.584;9.938;2023-08-17T12:19:16;7.73;;;4.83;;
3022;SDS011;1521;53.584;9.938;2023-08-17T12:21:43;7.43;;;4.47;;
3022;SDS011;1521;53.584;9.938;2023-08-17T12:24:10;6.00;;;4.93;;
3022;SDS011;1521;53.584;9.938;2023-08-17T12:26:45;6.40;;;5.27;;
3022;SDS011;1521;53.584;9.938;2023-08-17T12:29:12;11.90;;;5.17;;
3022;SDS011;1521;53.584;9.938;2023-08-17T12:31:38;7.90;;;5.20;;
3022;SDS011;1521;53.584;9.938;2023-08-17T12:34:03;6.70;;;5.73;;
3022;SDS011;1521;53.584;9.938;2023-08-17T12:36:31;7.20;;;4.83;;
3022;SDS011;1521;53.584;9.938;2023-08-17T12:38:57;10.97;;;5.30;;
3022;SDS011;1521;53.584;9.938;2023-08-17T12:41:23;7.70;;;5.77;;
3022;SDS011;1521;53.584;9.938;2023-08-17T12:43:48;5.90;;;4.80;;
3022;SDS011;1521;53.584;9.938;2023-08-17T12:46:14;6.37;;;4.80;;
3022;SDS011;1521;53.584;9.938;2023-08-17T12:48:40;6.47;;;4.30;;
3022;SDS011;1521;53.584;9.938;2023-08-17T12:51:05;8.50;;;4.30;;
3022;SDS011;1521;53.584;9.938;2023-08-17T12:53:31;5.80;;;3.50;;
3022;SDS011;1521;53.584;9.938;2023-08-17T12:55:57;5.43;;;3.50;;
3022;SDS011;1521;53.584;9.938;2023-08-17T12:58:23;8.10;;;4.50;;
3022;SDS011;1521;53.584;9.938;2023-08-17T13:00:49;5.10;;;4.10;;
3022;SDS011;1521;53.584;9.938;2023-08-17T13:03:16;5.30;;;4.20;;
3022;SDS011;1521;53.584;9.938;2023-08-17T13:05:42;6.70;;;4.60;;
3022;SDS011;1521;53.584;9.938;2023-08-17T13:08:08;4.50;;;3.77;;
3022;SDS011;1521;53.584;9.938;2023-08-17T13:10:34;6.73;;;4.10;;
3022;SDS011;1521;53.584;9.938;2023-08-17T13:13:00;4.97;;;4.00;;
3022;SDS011;1521;53.584;9.938;2023-08-17T13:15:26;5.53;;;4.27;;
3022;SDS011;1521;53.584;9.938;2023-08-17T13:17:51;5.67;;;4.47;;
3022;SDS011;1521;53.584;9.938;2023-08-17T13:20:17;6.57;;;4.37;;
3022;SDS011;1521;53.584;9.938;2023-08-17T13:22:42;5.53;;;3.80;;
3022;SDS011;1521;53.584;9.938;2023-08-17T13:25:08;6.80;;;4.03;;
3022;SDS011;1521;53.584;9.938;2023-08-17T13:27:34;5.03;;;4.17;;
3022;SDS011;1521;53.584;9.938;2023-08-17T13:29:59;5.80;;;4.60;;
3022;SDS011;1521;53.584;9.938;2023-08-17T13:32:26;3.93;;;3.43;;
3022;SDS011;1521;53.584;9.938;2023-08-17T13:34:52;5.43;;;3.20;;
3022;SDS011;1521;53.584;9.938;2023-08-17T13:37:18;3.03;;;2.30;;
3022;SDS011;1521;53.584;9.938;2023-08-17T13:39:43;3.40;;;1.83;;
3022;SDS011;1521;53.584;9.938;2023-08-17T13:42:09;1.93;;;1.73;;
3022;SDS011;1521;53.584;9.938;2023-08-17T13:44:35;1.97;;;1.70;;
3022;SDS011;1521;53.584;9.938;2023-08-17T13:47:00;1.70;;;1.60;;
3022;SDS011;1521;53.584;9.938;2023-08-17T13:49:26;1.57;;;1.47;;
3022;SDS011;1521;53.584;9.938;2023-08-17T13:51:53;1.40;;;1.30;;
3022;SDS011;1521;53.584;9.938;2023-08-17T13:54:19;1.67;;;1.57;;
3022;SDS011;1521;53.584;9.938;2023-08-17T13:56:44;2.33;;;2.00;;
3022;SDS011;1521;53.584;9.938;2023-08-17T13:59:10;2.50;;;1.80;;
3022;SDS011;1521;53.584;9.938;2023-08-17T14:01:36;2.57;;;1.70;;
3022;SDS011;1521;53.584;9.938;2023-08-17T14:04:02;1.80;;;1.70;;
3022;SDS011;1521;53.584;9.938;2023-08-17T14:06:28;2.43;;;2.23;;
3022;SDS011;1521;53.584;9.938;2023-08-17T14:08:54;2.73;;;2.10;;
3022;SDS011;1521;53.584;9.938;2023-08-17T14:11:20;3.27;;;2.20;;
3022;SDS011;1521;53.584;9.938;2023-08-17T14:13:45;2.37;;;1.90;;
3022;SDS011;1521;53.584;9.938;2023-08-17T14:16:11;2.30;;;2.00;;
3022;SDS011;1521;53.584;9.938;2023-08-17T14:18:36;3.77;;;2.00;;
3022;SDS011;1521;53.584;9.938;2023-08-17T14:21:02;2.30;;;1.40;;
3022;SDS011;1521;53.584;9.938;2023-08-17T14:23:28;6.60;;;1.43;;
3022;SDS011;1521;53.584;9.938;2023-08-17T14:25:53;1.60;;;1.50;;
3022;SDS011;1521;53.584;9.938;2023-08-17T14:28:19;2.40;;;1.50;;
3022;SDS011;1521;53.584;9.938;2023-08-17T14:30:45;2.80;;;1.90;;
3022;SDS011;1521;53.584;9.938;2023-08-17T14:33:11;2.83;;;1.70;;
3022;SDS011;1521;53.584;9.938;2023-08-17T14:35:37;3.10;;;1.70;;
3022;SDS011;1521;53.584;9.938;2023-08-17T14:38:03;5.20;;;1.80;;
3022;SDS011;1521;53.584;9.938;2023-08-17T14:40:29;1.80;;;1.70;;
3022;SDS011;1521;53.584;9.938;2023-08-17T14:42:54;1.60;;;1.50;;
3022;SDS011;1521;53.584;9.938;2023-08-17T14:45:20;2.37;;;1.67;;
3022;SDS011;1521;53.584;9.938;2023-08-17T14:47:46;2.07;;;1.83;;
3022;SDS011;1521;53.584;9.938;2023-08-17T14:50:11;2.00;;;1.90;;
3022;SDS011;1521;53.584;9.938;2023-08-17T14:52:39;2.93;;;2.27;;
3022;SDS011;1521;53.584;9.938;2023-08-17T14:55:04;2.87;;;2.00;;
3022;SDS011;1521;53.584;9.938;2023-08-17T14:57:30;2.40;;;1.90;;
3022;SDS011;1521;53.584;9.938;2023-08-17T14:59:56;2.83;;;1.83;;
3022;SDS011;1521;53.584;9.938;2023-08-17T15:02:21;1.87;;;1.70;;
3022;SDS011;1521;53.584;9.938;2023-08-17T15:04:47;1.83;;;1.73;;
3022;SDS011;1521;53.584;9.938;2023-08-17T15:07:13;2.60;;;1.67;;
3022;SDS011;1521;53.584;9.938;2023-08-17T15:09:38;2.60;;;1.63;;
3022;SDS011;1521;53.584;9.938;2023-08-17T15:12:04;1.93;;;1.83;;
3022;SDS011;1521;53.584;9.938;2023-08-17T15:14:30;2.50;;;1.90;;
3022;SDS011;1521;53.584;9.938;2023-08-17T15:16:56;3.07;;;1.67;;
3022;SDS011;1521;53.584;9.938;2023-08-17T15:19:22;1.70;;;1.60;;
3022;SDS011;1521;53.584;9.938;2023-08-17T15:21:48;1.80;;;1.70;;
3022;SDS011;1521;53.584;9.938;2023-08-17T15:24:13;4.77;;;1.77;;
3022;SDS011;1521;53.584;9.938;2023-08-17T15:26:39;1.90;;;1.80;;
3022;SDS011;1521;53.584;9.938;2023-08-17T15:29:05;4.80;;;2.03;;
3022;SDS011;1521;53.584;9.938;2023-08-17T15:31:31;3.07;;;1.63;;